Time;durP1;ratioP1;P1;durP2;ratioP2;P2;SDS_P1;SDS_P2;PMS_P1;PMS_P2;Temp;Humidity;BMP_temperature;BMP_pressure;BME280_temperature;BME280_humidity;BME280_pressure;Samples;Min_cycle;Max_cycle;Signal;HPM_P1;HPM_P2
2022/10/09 00:00:13;;;;;;;6.50;4.53;;;8.80;99.90;;;;;;5017659;28;20975;-85
2022/10/09 00:02:40;;;;;;;10.80;4.97;;;8.80;99.90;;;;;;5019491;28;20466;-84
2022/10/09 00:05:08;;;;;;;8.57;4.43;;;8.80;99.90;;;;;;5018307;28;20467;-85
2022/10/09 00:07:35;;;;;;;10.10;5.10;;;8.80;99.90;;;;;;5019331;28;20454;-85
2022/10/09 00:10:04;;;;;;;9.83;6.57;;;8.70;99.90;;;;;;5018749;28;20460;-85
2022/10/09 00:12:30;;;;;;;11.23;6.07;;;8.70;99.90;;;;;;5019431;28;20452;-85
2022/10/09 00:14:57;;;;;;;10.50;5.70;;;8.70;99.90;;;;;;5019047;28;20996;-85
2022/10/09 00:17:24;;;;;;;8.90;5.13;;;8.70;99.90;;;;;;5019944;28;20474;-85
2022/10/09 00:19:51;;;;;;;9.13;4.63;;;8.70;99.90;;;;;;5019507;28;20453;-85
2022/10/09 00:22:17;;;;;;;9.97;5.00;;;8.70;99.90;;;;;;5023410;28;20456;-86
2022/10/09 00:24:44;;;;;;;7.37;3.47;;;8.70;99.90;;;;;;5039384;28;20473;-85
2022/10/09 00:27:12;;;;;;;7.60;4.07;;;8.70;99.90;;;;;;5022504;28;20969;-86
2022/10/09 00:29:39;;;;;;;10.77;4.80;;;8.60;99.90;;;;;;5018950;28;20857;-84
2022/10/09 00:32:06;;;;;;;6.43;3.50;;;8.70;99.90;;;;;;5019885;28;20484;-85
2022/10/09 00:34:33;;;;;;;7.63;3.73;;;8.70;99.90;;;;;;5019111;28;20450;-84
2022/10/09 00:37:00;;;;;;;7.90;4.10;;;8.70;99.90;;;;;;5019018;28;20488;-85
2022/10/09 00:39:27;;;;;;;7.40;3.50;;;8.70;99.90;;;;;;5018362;28;20485;-85
2022/10/09 00:41:53;;;;;;;8.90;3.40;;;8.60;99.90;;;;;;5019532;28;20468;-85
2022/10/09 00:44:49;;;;;;;6.80;3.87;;;8.60;99.90;;;;;;5019055;28;20450;-85
2022/10/09 00:47:20;;;;;;;7.40;3.47;;;8.40;99.90;;;;;;5020406;28;20538;-84
2022/10/09 00:49:48;;;;;;;6.57;3.10;;;8.50;99.90;;;;;;5018428;28;20447;-85
2022/10/09 00:52:15;;;;;;;6.50;3.33;;;8.50;99.90;;;;;;5020405;28;20453;-84
2022/10/09 00:54:43;;;;;;;7.73;3.23;;;8.50;99.90;;;;;;5019441;28;20838;-85
2022/10/09 00:57:11;;;;;;;5.67;3.30;;;8.60;99.90;;;;;;5020086;28;20486;-85
2022/10/09 00:59:39;;;;;;;6.10;2.77;;;8.50;99.90;;;;;;5019946;28;20481;-85
2022/10/09 01:02:07;;;;;;;5.90;3.03;;;8.40;99.90;;;;;;5019369;28;20550;-85
2022/10/09 01:04:34;;;;;;;9.67;4.17;;;8.40;99.90;;;;;;5020243;28;20457;-85
2022/10/09 01:07:15;;;;;;;8.83;3.90;;;8.10;99.90;;;;;;5019702;28;20457;-85
2022/10/09 01:09:47;;;;;;;3.90;2.83;;;8.30;99.90;;;;;;5019436;28;20450;-84
2022/10/09 01:12:21;;;;;;;7.43;3.07;;;8.30;99.90;;;;;;5021010;28;20521;-85
2022/10/09 01:15:00;;;;;;;9.00;4.13;;;8.20;99.90;;;;;;5020067;28;20573;-85
2022/10/09 01:17:35;;;;;;;8.47;3.77;;;8.10;99.90;;;;;;5020494;28;20557;-85
2022/10/09 01:20:26;;;;;;;7.80;4.37;;;8.10;99.90;;;;;;5020122;28;20529;-85
2022/10/09 01:23:16;;;;;;;11.90;4.27;;;8.10;99.90;;;;;;5019038;28;20974;-84
2022/10/09 01:25:53;;;;;;;3.23;2.80;;;8.20;99.90;;;;;;5020368;28;20580;-86
2022/10/09 01:28:27;;;;;;;6.73;3.80;;;8.20;99.90;;;;;;5021170;28;20447;-85
2022/10/09 01:30:55;;;;;;;8.13;3.10;;;8.20;99.90;;;;;;5021716;28;20537;-85
2022/10/09 01:33:22;;;;;;;5.83;3.30;;;8.20;99.90;;;;;;5021057;28;20468;-86
2022/10/09 01:35:49;;;;;;;4.17;3.13;;;8.20;99.90;;;;;;5020646;28;20477;-86
2022/10/09 01:38:17;;;;;;;6.10;3.30;;;8.20;99.90;;;;;;5021663;28;21058;-84
2022/10/09 01:40:45;;;;;;;6.93;2.97;;;8.20;99.90;;;;;;5020879;28;20463;-85
2022/10/09 01:43:11;;;;;;;8.87;3.50;;;8.20;99.90;;;;;;5022115;28;20466;-84
2022/10/09 01:45:42;;;;;;;4.90;3.00;;;8.30;99.90;;;;;;5020414;28;20481;-86
2022/10/09 01:48:13;;;;;;;6.07;2.90;;;8.30;99.90;;;;;;5021040;28;20439;-85
2022/10/09 01:50:44;;;;;;;6.67;3.10;;;8.30;99.90;;;;;;5019688;28;20453;-85
2022/10/09 01:53:15;;;;;;;5.37;2.77;;;8.30;99.90;;;;;;5018234;28;20457;-85
2022/10/09 01:55:49;;;;;;;7.93;2.73;;;8.30;99.90;;;;;;5016137;28;20581;-84
2022/10/09 01:58:20;;;;;;;7.03;2.87;;;8.20;99.90;;;;;;5016874;28;20461;-85
2022/10/09 02:00:54;;;;;;;8.13;2.83;;;8.20;99.90;;;;;;5020776;28;20456;-84
2022/10/09 02:03:23;;;;;;;4.27;2.80;;;8.20;99.90;;;;;;5021507;28;20463;-85
2022/10/09 02:05:52;;;;;;;7.13;3.37;;;8.20;99.90;;;;;;5021911;28;20481;-85
2022/10/09 02:08:22;;;;;;;4.70;2.97;;;8.20;99.90;;;;;;5021453;28;20453;-85
2022/10/09 02:10:52;;;;;;;5.73;3.20;;;8.00;99.90;;;;;;5021596;28;20881;-85
2022/10/09 02:13:19;;;;;;;9.70;3.63;;;8.10;99.90;;;;;;5021914;28;20465;-84
2022/10/09 02:15:51;;;;;;;5.90;2.83;;;8.00;99.90;;;;;;5021751;28;20477;-84
2022/10/09 02:18:25;;;;;;;4.93;2.93;;;8.00;99.90;;;;;;5021417;28;20454;-85
2022/10/09 02:20:59;;;;;;;7.27;3.60;;;8.00;99.90;;;;;;5024607;28;20448;-84
2022/10/09 02:23:27;;;;;;;7.17;3.40;;;8.00;99.90;;;;;;5025538;28;20468;-84
2022/10/09 02:25:54;;;;;;;5.90;3.50;;;8.00;99.90;;;;;;5030867;28;20474;-84
2022/10/09 02:28:22;;;;;;;6.30;2.97;;;8.00;99.90;;;;;;5029543;28;20456;-84
2022/10/09 02:30:56;;;;;;;5.20;3.33;;;8.00;99.90;;;;;;5030546;28;20449;-85
2022/10/09 02:33:30;;;;;;;7.37;3.47;;;8.00;99.90;;;;;;5031459;28;20458;-84
2022/10/09 02:35:57;;;;;;;7.43;3.00;;;8.00;99.90;;;;;;5032425;28;20451;-85
2022/10/09 02:38:23;;;;;;;6.37;3.37;;;8.00;99.90;;;;;;5039343;28;20457;-85
2022/10/09 02:40:50;;;;;;;6.50;3.37;;;7.80;99.90;;;;;;5020176;28;20496;-86
2022/10/09 02:43:17;;;;;;;7.87;2.93;;;7.80;99.90;;;;;;5025909;28;20458;-84
2022/10/09 02:45:44;;;;;;;5.63;2.67;;;7.90;99.90;;;;;;5029249;28;20479;-84
2022/10/09 02:48:12;;;;;;;6.53;3.43;;;7.90;99.90;;;;;;5028736;28;20499;-85
2022/10/09 02:50:39;;;;;;;10.30;4.00;;;8.00;99.90;;;;;;5028119;28;20447;-83
2022/10/09 02:53:05;;;;;;;8.47;4.50;;;7.90;99.90;;;;;;5026755;28;20544;-84
2022/10/09 02:55:32;;;;;;;7.30;3.50;;;7.90;99.90;;;;;;5026161;28;20953;-85
2022/10/09 02:58:01;;;;;;;6.30;3.67;;;7.90;99.90;;;;;;5022762;28;20525;-85
2022/10/09 03:00:28;;;;;;;5.80;3.03;;;7.90;99.90;;;;;;5028705;28;20489;-84
2022/10/09 03:02:55;;;;;;;6.80;3.93;;;8.00;99.90;;;;;;5029850;28;20483;-84
2022/10/09 03:05:23;;;;;;;10.50;4.20;;;8.00;99.90;;;;;;5030311;28;20533;-84
2022/10/09 03:07:51;;;;;;;9.80;3.93;;;8.00;99.90;;;;;;5030392;28;20480;-84
2022/10/09 03:10:19;;;;;;;6.77;4.47;;;7.90;99.90;;;;;;5029974;28;21135;-83
2022/10/09 03:12:46;;;;;;;5.57;4.10;;;7.90;99.90;;;;;;5024446;28;20468;-85
2022/10/09 03:15:13;;;;;;;9.83;3.90;;;7.80;99.90;;;;;;5024595;28;20450;-84
2022/10/09 03:17:40;;;;;;;5.53;3.57;;;7.80;99.90;;;;;;5024808;28;20449;-84
2022/10/09 03:20:08;;;;;;;6.70;3.53;;;7.90;99.90;;;;;;5022399;28;21018;-83
2022/10/09 03:22:36;;;;;;;7.57;4.43;;;7.80;99.90;;;;;;5024580;28;20450;-84
2022/10/09 03:25:02;;;;;;;6.97;3.80;;;7.80;99.90;;;;;;5029693;28;20446;-85
2022/10/09 03:27:30;;;;;;;6.43;3.70;;;7.80;99.90;;;;;;5028878;28;20470;-84
2022/10/09 03:29:57;;;;;;;7.93;4.37;;;7.80;99.90;;;;;;5029812;28;20454;-83
2022/10/09 03:32:24;;;;;;;8.07;4.97;;;7.80;99.90;;;;;;5026795;28;20829;-85
2022/10/09 03:34:51;;;;;;;10.13;4.83;;;7.70;99.90;;;;;;5021923;28;20449;-85
2022/10/09 03:37:18;;;;;;;9.80;4.60;;;7.70;99.90;;;;;;5020990;28;20482;-85
2022/10/09 03:39:46;;;;;;;7.60;4.43;;;7.70;99.90;;;;;;5021408;28;20501;-85
2022/10/09 03:42:13;;;;;;;10.33;4.83;;;7.60;99.90;;;;;;5025537;28;20456;-85
2022/10/09 03:44:40;;;;;;;6.77;3.70;;;7.50;99.90;;;;;;5024240;28;20465;-85
2022/10/09 03:47:06;;;;;;;9.50;4.33;;;7.50;99.90;;;;;;5024888;28;20472;-84
2022/10/09 03:49:33;;;;;;;8.93;4.80;;;7.60;99.90;;;;;;5027415;28;20509;-84
2022/10/09 03:52:00;;;;;;;6.87;4.23;;;7.60;99.90;;;;;;5027969;28;20541;-86
2022/10/09 03:54:27;;;;;;;8.83;3.17;;;7.60;99.90;;;;;;5028322;28;20468;-85
2022/10/09 03:56:55;;;;;;;6.70;3.70;;;7.60;99.90;;;;;;5029445;28;20480;-84
2022/10/09 03:59:22;;;;;;;9.67;4.37;;;7.70;99.90;;;;;;5024007;28;20481;-85
2022/10/09 04:01:48;;;;;;;6.60;3.77;;;7.60;99.90;;;;;;5021548;28;20458;-85
2022/10/09 04:04:16;;;;;;;10.13;4.43;;;7.60;99.90;;;;;;5027849;28;20524;-84
2022/10/09 04:06:42;;;;;;;9.00;4.63;;;7.70;99.90;;;;;;5024649;28;20481;-85
2022/10/09 04:09:09;;;;;;;5.70;4.10;;;7.50;99.90;;;;;;5021521;28;20457;-82
2022/10/09 04:11:36;;;;;;;6.93;3.70;;;7.60;99.90;;;;;;5030508;28;20509;-85
2022/10/09 04:14:05;;;;;;;8.30;4.13;;;7.50;99.90;;;;;;5020349;28;20991;-84
2022/10/09 04:16:31;;;;;;;6.63;3.50;;;7.60;99.90;;;;;;5029198;28;20512;-84
2022/10/09 04:18:59;;;;;;;5.83;3.30;;;7.60;99.90;;;;;;5029160;28;20450;-84
2022/10/09 04:21:25;;;;;;;7.23;3.40;;;7.60;99.90;;;;;;5023776;28;20466;-85
2022/10/09 04:23:52;;;;;;;10.40;4.13;;;7.60;99.90;;;;;;5019990;28;20461;-85
2022/10/09 04:26:19;;;;;;;6.93;3.33;;;7.50;99.90;;;;;;5024517;28;20541;-86
2022/10/09 04:28:46;;;;;;;9.17;3.50;;;7.60;99.90;;;;;;5023015;28;20465;-85
2022/10/09 04:31:14;;;;;;;6.30;3.63;;;7.50;99.90;;;;;;5023400;28;20455;-84
2022/10/09 04:33:41;;;;;;;8.07;4.43;;;7.50;99.90;;;;;;5029465;28;20518;-85
2022/10/09 04:36:07;;;;;;;7.60;4.20;;;7.40;99.90;;;;;;5022685;28;20541;-86
2022/10/09 04:38:34;;;;;;;8.57;4.20;;;7.40;99.90;;;;;;5021409;28;20457;-85
2022/10/09 04:41:03;;;;;;;5.90;3.70;;;7.40;99.90;;;;;;5023445;28;20227;-85
2022/10/09 04:43:30;;;;;;;8.63;3.57;;;7.40;99.90;;;;;;5024382;28;20459;-85
2022/10/09 04:45:57;;;;;;;7.27;3.90;;;7.40;99.90;;;;;;5024361;28;20833;-85
2022/10/09 04:48:25;;;;;;;6.20;3.80;;;7.50;99.90;;;;;;5025100;28;20461;-85
2022/10/09 04:50:52;;;;;;;5.57;3.47;;;7.40;99.90;;;;;;5037750;28;20489;-83
2022/10/09 04:53:19;;;;;;;6.53;3.20;;;7.40;99.90;;;;;;5024279;28;20791;-85
2022/10/09 04:55:46;;;;;;;6.00;3.50;;;7.40;99.90;;;;;;5018128;28;20482;-84
2022/10/09 04:58:13;;;;;;;7.47;3.40;;;7.30;99.90;;;;;;5019499;28;20460;-85
2022/10/09 05:00:41;;;;;;;5.93;3.60;;;7.30;99.90;;;;;;5019559;28;20477;-83
2022/10/09 05:03:07;;;;;;;6.03;3.77;;;7.20;99.90;;;;;;5019195;28;20438;-84
2022/10/09 05:05:36;;;;;;;7.87;3.87;;;7.20;99.90;;;;;;5017548;28;20484;-84
2022/10/09 05:08:02;;;;;;;5.10;3.00;;;7.20;99.90;;;;;;5018854;28;20454;-85
2022/10/09 05:10:30;;;;;;;7.93;3.70;;;7.30;99.90;;;;;;5017277;28;20450;-84
2022/10/09 05:12:58;;;;;;;7.23;2.97;;;7.30;99.90;;;;;;5019111;28;20483;-86
2022/10/09 05:15:25;;;;;;;5.70;3.47;;;7.40;99.90;;;;;;5018361;28;20972;-85
2022/10/09 05:17:52;;;;;;;6.43;3.00;;;7.40;99.90;;;;;;5019261;28;20458;-84
2022/10/09 05:20:19;;;;;;;7.80;3.40;;;7.40;99.90;;;;;;5020320;28;20482;-86
2022/10/09 05:22:47;;;;;;;6.07;3.33;;;7.30;99.90;;;;;;5020341;28;20885;-85
2022/10/09 05:25:14;;;;;;;5.63;3.30;;;7.30;99.90;;;;;;5019636;28;20444;-83
2022/10/09 05:27:41;;;;;;;7.20;4.33;;;7.30;99.90;;;;;;5019382;28;20457;-83
2022/10/09 05:30:09;;;;;;;6.80;3.53;;;7.30;99.90;;;;;;5019028;28;20453;-84
2022/10/09 05:32:36;;;;;;;6.30;2.67;;;7.30;99.90;;;;;;5020502;28;20646;-86
2022/10/09 05:35:03;;;;;;;4.97;3.10;;;7.20;99.90;;;;;;5020043;28;20548;-85
2022/10/09 05:37:30;;;;;;;7.43;3.40;;;7.20;99.90;;;;;;5021534;28;20485;-85
2022/10/09 05:39:58;;;;;;;7.43;3.23;;;7.30;99.90;;;;;;5020724;28;20916;-85
2022/10/09 05:42:25;;;;;;;4.80;2.73;;;7.30;99.90;;;;;;5020704;28;20457;-84
2022/10/09 05:44:51;;;;;;;4.73;2.97;;;7.30;99.90;;;;;;5021567;28;20460;-85
2022/10/09 05:47:18;;;;;;;5.40;3.17;;;7.40;99.90;;;;;;5021179;28;20488;-84
2022/10/09 05:49:45;;;;;;;5.03;3.00;;;7.40;99.90;;;;;;5019558;28;20485;-86
2022/10/09 05:52:12;;;;;;;7.00;3.20;;;7.30;99.90;;;;;;5012802;28;20468;-87
2022/10/09 05:54:40;;;;;;;4.90;3.00;;;7.20;99.90;;;;;;5012901;28;20463;-86
2022/10/09 05:57:09;;;;;;;7.73;3.63;;;7.10;99.90;;;;;;5012610;28;20997;-85
2022/10/09 05:59:35;;;;;;;6.27;3.53;;;7.20;99.90;;;;;;5014122;28;20578;-86
2022/10/09 06:02:02;;;;;;;6.23;3.40;;;7.10;99.90;;;;;;5009395;28;20457;-86
2022/10/09 06:04:30;;;;;;;6.50;2.63;;;7.20;99.90;;;;;;5004297;28;20465;-86
2022/10/09 06:07:03;;;;;;;5.50;3.23;;;7.20;99.90;;;;;;5008588;28;20476;-86
2022/10/09 06:09:30;;;;;;;8.33;3.60;;;7.20;99.90;;;;;;5009859;28;20453;-87
2022/10/09 06:11:57;;;;;;;6.30;3.50;;;7.30;99.90;;;;;;5012290;28;20453;-86
2022/10/09 06:14:26;;;;;;;5.60;2.90;;;7.30;99.90;;;;;;5014143;28;20451;-86
2022/10/09 06:16:53;;;;;;;5.37;3.70;;;7.30;99.90;;;;;;5012700;28;20489;-83
2022/10/09 06:19:20;;;;;;;6.20;3.37;;;7.20;99.90;;;;;;5014707;28;20556;-84
2022/10/09 06:21:48;;;;;;;5.90;3.57;;;7.30;99.90;;;;;;5011181;28;20526;-85
2022/10/09 06:24:19;;;;;;;4.83;3.17;;;7.20;99.90;;;;;;5014623;28;20484;-84
2022/10/09 06:26:46;;;;;;;6.13;3.00;;;7.30;99.90;;;;;;5016280;28;20477;-83
2022/10/09 06:29:13;;;;;;;6.30;3.70;;;7.30;99.90;;;;;;5022470;28;20507;-84
2022/10/09 06:31:41;;;;;;;5.40;2.73;;;7.30;99.90;;;;;;5031598;28;20433;-83
2022/10/09 06:34:09;;;;;;;6.77;4.23;;;7.30;99.90;;;;;;5023824;28;20546;-85
2022/10/09 06:36:36;;;;;;;7.30;3.77;;;7.30;99.90;;;;;;5024306;28;20514;-83
2022/10/09 06:39:05;;;;;;;6.80;3.17;;;7.30;99.90;;;;;;5023963;28;20445;-83
2022/10/09 06:41:33;;;;;;;5.13;3.60;;;7.40;99.90;;;;;;5025055;28;20557;-84
2022/10/09 06:44:01;;;;;;;6.77;3.00;;;7.30;99.90;;;;;;5020678;28;20549;-83
2022/10/09 06:46:30;;;;;;;8.60;3.70;;;7.40;99.90;;;;;;5028754;28;20465;-83
2022/10/09 06:48:58;;;;;;;4.57;3.47;;;7.50;99.90;;;;;;5028282;28;20441;-84
2022/10/09 06:51:26;;;;;;;7.97;3.40;;;7.50;99.90;;;;;;5028685;28;20513;-84
2022/10/09 06:53:54;;;;;;;5.97;3.27;;;7.70;99.90;;;;;;5028752;28;20458;-84
2022/10/09 06:56:23;;;;;;;7.57;4.07;;;7.60;99.90;;;;;;5025766;28;20483;-85
2022/10/09 06:58:50;;;;;;;5.10;3.33;;;7.70;99.90;;;;;;5029584;28;20508;-85
2022/10/09 07:01:19;;;;;;;8.33;3.60;;;7.80;99.90;;;;;;5036894;28;20473;-81
2022/10/09 07:03:48;;;;;;;8.70;3.63;;;7.80;99.90;;;;;;5031850;28;20548;-84
2022/10/09 07:06:17;;;;;;;8.50;4.13;;;7.90;99.90;;;;;;5027551;28;20473;-85
2022/10/09 07:08:46;;;;;;;5.83;3.77;;;7.90;99.90;;;;;;5027869;28;20533;-84
2022/10/09 07:11:14;;;;;;;5.77;3.50;;;8.00;99.90;;;;;;5027245;28;20457;-83
2022/10/09 07:13:42;;;;;;;5.27;3.47;;;8.10;99.90;;;;;;5027055;28;20460;-82
2022/10/09 07:16:10;;;;;;;6.77;3.87;;;8.20;99.90;;;;;;5027468;28;20478;-83
2022/10/09 07:18:38;;;;;;;6.37;3.47;;;8.20;99.90;;;;;;5027306;28;20454;-83
2022/10/09 07:21:06;;;;;;;8.60;3.67;;;8.30;99.90;;;;;;5027506;28;20860;-84
2022/10/09 07:23:35;;;;;;;4.63;3.43;;;8.40;99.90;;;;;;5024110;28;20468;-83
2022/10/09 07:26:08;;;;;;;5.80;3.53;;;8.50;99.90;;;;;;5027429;28;20461;-85
2022/10/09 07:28:35;;;;;;;9.20;3.00;;;8.60;99.90;;;;;;5025940;28;20464;-84
2022/10/09 07:31:03;;;;;;;10.37;3.07;;;8.70;99.90;;;;;;5027570;28;20518;-84
2022/10/09 07:33:30;;;;;;;6.07;3.10;;;8.80;99.90;;;;;;5027192;28;20460;-85
2022/10/09 07:35:58;;;;;;;4.50;3.07;;;8.90;99.90;;;;;;5026410;28;20984;-84
2022/10/09 07:38:25;;;;;;;5.27;2.83;;;9.00;99.90;;;;;;5027417;28;20454;-84
2022/10/09 07:40:54;;;;;;;8.20;3.53;;;9.10;99.90;;;;;;5026186;28;20485;-84
2022/10/09 07:43:22;;;;;;;5.80;3.13;;;9.20;99.90;;;;;;5027334;28;20978;-83
2022/10/09 07:45:48;;;;;;;5.73;3.30;;;9.20;99.90;;;;;;5026398;28;20506;-83
2022/10/09 07:48:15;;;;;;;6.17;3.03;;;9.30;99.90;;;;;;5026612;28;21022;-83
2022/10/09 07:50:42;;;;;;;6.30;2.67;;;9.40;99.90;;;;;;5026065;28;20531;-84
2022/10/09 07:53:09;;;;;;;7.33;2.37;;;9.50;99.90;;;;;;5029621;28;20479;-84
2022/10/09 07:55:36;;;;;;;4.17;2.83;;;9.50;99.90;;;;;;5025933;28;20571;-84
2022/10/09 07:58:04;;;;;;;4.30;2.30;;;9.60;99.90;;;;;;5024525;28;20460;-84
2022/10/09 08:00:31;;;;;;;8.80;2.57;;;9.70;99.90;;;;;;5026482;28;20571;-84
2022/10/09 08:02:58;;;;;;;3.80;2.50;;;9.80;99.90;;;;;;5024545;28;20724;-84
2022/10/09 08:05:24;;;;;;;6.00;2.70;;;9.80;99.90;;;;;;5025855;28;20535;-84
2022/10/09 08:07:53;;;;;;;4.37;2.43;;;9.90;99.90;;;;;;5024954;28;20552;-83
2022/10/09 08:10:20;;;;;;;5.73;2.33;;;10.00;99.90;;;;;;5025718;28;20584;-85
2022/10/09 08:12:47;;;;;;;2.40;1.90;;;10.10;99.90;;;;;;5025433;28;20463;-84
2022/10/09 08:15:17;;;;;;;4.67;2.27;;;10.20;99.90;;;;;;5025552;28;20549;-82
2022/10/09 08:17:44;;;;;;;7.93;3.10;;;10.20;99.90;;;;;;5026275;28;20543;-84
2022/10/09 08:20:11;;;;;;;6.03;2.03;;;10.30;99.90;;;;;;5024871;28;20450;-84
2022/10/09 08:22:37;;;;;;;7.27;1.83;;;10.40;99.90;;;;;;5025339;28;20985;-84
2022/10/09 08:25:05;;;;;;;4.00;2.40;;;10.50;99.90;;;;;;5024390;28;20543;-84
2022/10/09 08:27:32;;;;;;;4.87;2.53;;;10.60;99.90;;;;;;5025418;28;20481;-84
2022/10/09 08:29:59;;;;;;;7.20;2.47;;;10.60;99.90;;;;;;5023997;28;20563;-83
2022/10/09 08:32:27;;;;;;;3.57;2.00;;;10.70;99.90;;;;;;5024957;28;20548;-84
2022/10/09 08:34:54;;;;;;;5.30;1.97;;;10.80;99.90;;;;;;5024277;28;20479;-85
2022/10/09 08:37:21;;;;;;;8.60;2.33;;;10.90;99.90;;;;;;5024826;28;20509;-84
2022/10/09 08:39:47;;;;;;;3.83;2.10;;;11.00;99.90;;;;;;5024574;28;20548;-84
2022/10/09 08:42:26;;;;;;;5.60;2.07;;;11.10;99.90;;;;;;5023900;28;20577;-85
2022/10/09 08:44:53;;;;;;;3.87;1.93;;;11.20;99.90;;;;;;5023130;28;20511;-86
2022/10/09 08:47:24;;;;;;;4.60;2.00;;;11.30;99.90;;;;;;5023098;28;20477;-86
2022/10/09 08:49:57;;;;;;;6.63;2.03;;;11.40;99.90;;;;;;5023259;28;20464;-85
2022/10/09 08:52:35;;;;;;;6.60;2.13;;;11.40;99.90;;;;;;5024878;28;20506;-86
2022/10/09 08:55:12;;;;;;;6.10;2.60;;;11.60;99.90;;;;;;5022704;28;20533;-86
2022/10/09 08:57:39;;;;;;;7.97;2.60;;;11.60;99.90;;;;;;5025610;28;20508;-85
2022/10/09 09:00:14;;;;;;;6.03;1.77;;;11.70;99.90;;;;;;5022604;28;20990;-86
2022/10/09 09:03:11;;;;;;;8.87;2.13;;;11.80;99.90;;;;;;5017653;28;20540;-87
2022/10/09 09:05:48;;;;;;;4.97;2.20;;;11.90;99.90;;;;;;5015883;28;20473;-85
2022/10/09 09:08:29;;;;;;;5.27;1.80;;;12.10;99.90;;;;;;5018043;28;20543;-85
2022/10/09 09:11:10;;;;;;;3.93;1.50;;;12.10;99.90;;;;;;5023401;28;20532;-83
2022/10/09 09:13:48;;;;;;;4.83;1.67;;;12.30;99.90;;;;;;5023112;28;20466;-86
2022/10/09 09:16:25;;;;;;;5.50;1.47;;;12.40;99.90;;;;;;5013730;28;20485;-86
2022/10/09 09:19:05;;;;;;;5.30;2.03;;;12.40;99.90;;;;;;5010440;28;20488;-85
2022/10/09 09:21:43;;;;;;;5.13;1.60;;;12.50;99.90;;;;;;5012072;28;20486;-85
2022/10/09 09:24:14;;;;;;;4.33;1.67;;;12.60;99.90;;;;;;5015556;28;20467;-84
2022/10/09 09:26:45;;;;;;;3.93;1.60;;;12.80;99.90;;;;;;5016002;28;20565;-85
2022/10/09 09:29:24;;;;;;;6.47;2.27;;;12.80;99.90;;;;;;5007378;28;20460;-86
2022/10/09 09:31:55;;;;;;;7.23;2.70;;;13.00;99.90;;;;;;5007105;28;20451;-87
2022/10/09 09:34:27;;;;;;;5.97;1.80;;;13.20;99.90;;;;;;5009021;28;20460;-86
2022/10/09 09:36:58;;;;;;;7.03;1.73;;;13.30;99.90;;;;;;5012665;28;20485;-88
2022/10/09 09:39:27;;;;;;;7.80;1.63;;;13.50;99.90;;;;;;5012727;28;20454;-87
2022/10/09 09:41:58;;;;;;;7.63;2.07;;;13.70;99.90;;;;;;5012207;28;20549;-86
2022/10/09 09:44:26;;;;;;;4.77;1.50;;;13.90;99.90;;;;;;4999101;28;21033;-87
2022/10/09 09:46:53;;;;;;;10.50;2.13;;;14.00;99.90;;;;;;4999114;28;20489;-87
2022/10/09 09:49:22;;;;;;;8.63;2.30;;;14.10;99.90;;;;;;5001810;28;20455;-87
2022/10/09 09:51:50;;;;;;;4.03;1.83;;;14.20;99.90;;;;;;5005738;28;20485;-87
2022/10/09 09:54:22;;;;;;;4.17;1.70;;;14.30;99.90;;;;;;5013684;28;20539;-87
2022/10/09 09:56:51;;;;;;;5.37;1.70;;;14.40;99.90;;;;;;5009334;28;20480;-87
2022/10/09 09:59:35;;;;;;;4.53;1.47;;;14.50;99.90;;;;;;5009686;28;20453;-86
2022/10/09 10:02:09;;;;;;;4.00;1.50;;;14.70;99.90;;;;;;5009597;28;20580;-87
2022/10/09 10:04:36;;;;;;;4.70;1.60;;;14.90;99.90;;;;;;5011308;28;20465;-86
2022/10/09 10:07:04;;;;;;;4.50;1.53;;;15.10;99.90;;;;;;5007691;28;20481;-86
2022/10/09 10:09:32;;;;;;;5.67;1.67;;;15.40;99.90;;;;;;5016305;28;20457;-87
2022/10/09 10:12:02;;;;;;;11.73;2.10;;;15.80;99.90;;;;;;5018335;28;20465;-85
2022/10/09 10:14:30;;;;;;;4.57;1.47;;;16.40;99.90;;;;;;5018343;28;20472;-86
2022/10/09 10:16:59;;;;;;;3.60;1.20;;;16.90;99.90;;;;;;5017104;28;20564;-85
2022/10/09 10:19:28;;;;;;;5.57;1.90;;;17.50;99.90;;;;;;5018477;28;21291;-84
2022/10/09 10:21:57;;;;;;;2.50;1.43;;;17.90;99.90;;;;;;5022123;28;20493;-85
2022/10/09 10:24:28;;;;;;;4.27;1.43;;;18.20;99.90;;;;;;5020391;28;20452;-86
2022/10/09 10:27:01;;;;;;;6.47;1.67;;;18.70;99.90;;;;;;5012684;28;20916;-87
2022/10/09 10:29:35;;;;;;;4.30;2.10;;;19.10;99.90;;;;;;5012755;28;20478;-86
2022/10/09 10:32:10;;;;;;;6.27;1.23;;;19.30;99.90;;;;;;5015890;28;20477;-87
2022/10/09 10:34:43;;;;;;;5.60;1.50;;;19.60;99.90;;;;;;5016378;28;20462;-86
2022/10/09 10:37:25;;;;;;;5.23;1.67;;;20.00;99.90;;;;;;5017332;28;21002;-87
2022/10/09 10:39:58;;;;;;;4.00;1.80;;;20.20;99.90;;;;;;5014613;28;20912;-86
2022/10/09 10:42:33;;;;;;;9.20;2.30;;;20.50;99.90;;;;;;5011919;28;20570;-86
2022/10/09 10:45:08;;;;;;;4.00;1.47;;;20.60;99.90;;;;;;5013230;28;20464;-85
2022/10/09 10:47:39;;;;;;;4.23;1.40;;;20.70;99.90;;;;;;5015761;28;20480;-87
2022/10/09 10:50:13;;;;;;;6.83;1.60;;;20.90;99.90;;;;;;5020599;28;20455;-86
2022/10/09 10:52:48;;;;;;;4.57;1.57;;;21.20;99.90;;;;;;5024521;28;20438;-86
2022/10/09 10:55:30;;;;;;;4.63;1.57;;;21.20;99.90;;;;;;5022120;28;20457;-84
2022/10/09 10:58:12;;;;;;;3.60;1.67;;;21.20;99.90;;;;;;5021808;28;20540;-86
2022/10/09 11:00:47;;;;;;;3.80;1.50;;;21.40;99.90;;;;;;5023424;28;20472;-86
2022/10/09 11:03:33;;;;;;;4.43;1.30;;;21.60;99.90;;;;;;5022592;28;20449;-86
2022/10/09 11:06:11;;;;;;;6.43;1.33;;;21.70;99.90;;;;;;5034418;28;20473;-85
2022/10/09 11:08:51;;;;;;;3.23;1.33;;;21.90;99.90;;;;;;5036256;28;20952;-81
2022/10/09 11:11:25;;;;;;;5.90;1.30;;;22.00;99.90;;;;;;5032343;28;20460;-85
2022/10/09 11:14:11;;;;;;;3.40;1.20;;;22.20;99.90;;;;;;5020705;28;20464;-85
2022/10/09 11:16:55;;;;;;;4.87;1.30;;;22.30;99.90;;;;;;5016915;28;20833;-85
2022/10/09 11:19:45;;;;;;;3.73;1.37;;;22.40;99.90;;;;;;5021419;28;20499;-86
2022/10/09 11:22:22;;;;;;;8.13;1.57;;;22.40;99.90;;;;;;5030694;28;20462;-87
2022/10/09 11:25:12;;;;;;;5.13;1.57;;;22.20;99.90;;;;;;5025310;28;20532;-86
2022/10/09 11:27:47;;;;;;;3.93;1.30;;;22.40;99.90;;;;;;5010439;28;20464;-85
2022/10/09 11:30:18;;;;;;;4.47;1.57;;;22.00;99.90;;;;;;5011060;28;20485;-85
2022/10/09 11:32:54;;;;;;;2.67;1.23;;;22.20;99.90;;;;;;5011720;28;20500;-85
2022/10/09 11:35:23;;;;;;;2.20;1.10;;;22.40;99.90;;;;;;5015126;28;20484;-84
2022/10/09 11:37:57;;;;;;;3.20;1.00;;;22.70;99.90;;;;;;5069311;22;21013;-84
2022/10/09 11:40:28;;;;;;;4.27;1.47;;;22.80;99.90;;;;;;5079040;28;20451;-84
2022/10/09 11:43:02;;;;;;;4.83;1.47;;;22.90;99.90;;;;;;5083613;28;20954;-85
2022/10/09 11:45:40;;;;;;;6.53;1.30;;;22.80;99.90;;;;;;5072725;28;20478;-84
2022/10/09 11:48:16;;;;;;;5.70;1.60;;;22.80;99.90;;;;;;5079021;28;20447;-85
2022/10/09 11:50:53;;;;;;;4.30;1.30;;;22.90;99.90;;;;;;5082541;28;20447;-85
2022/10/09 11:53:22;;;;;;;3.40;1.13;;;23.30;99.90;;;;;;5081305;28;20447;-84
2022/10/09 11:55:49;;;;;;;5.27;1.40;;;23.50;99.90;;;;;;5081478;28;20512;-84
2022/10/09 11:58:22;;;;;;;4.20;1.40;;;23.80;99.90;;;;;;5082572;28;20467;-86
2022/10/09 12:00:54;;;;;;;5.70;2.03;;;24.00;99.90;;;;;;5071767;28;20455;-85
2022/10/09 12:03:32;;;;;;;2.87;1.30;;;24.10;99.90;;;;;;5080499;28;20474;-85
2022/10/09 12:06:12;;;;;;;4.27;2.17;;;23.90;99.90;;;;;;5074069;28;20466;-84
2022/10/09 12:08:42;;;;;;;3.20;1.20;;;24.10;99.90;;;;;;5079540;28;21024;-84
2022/10/09 12:11:15;;;;;;;5.13;1.30;;;24.40;99.90;;;;;;5080665;28;20518;-85
2022/10/09 12:13:49;;;;;;;3.87;1.20;;;24.60;99.90;;;;;;5080043;28;21192;-85
2022/10/09 12:16:37;;;;;;;3.57;1.70;;;24.60;99.90;;;;;;5080131;28;20523;-84
2022/10/09 12:19:13;;;;;;;4.00;1.50;;;24.70;99.90;;;;;;5075842;28;20471;-84
2022/10/09 12:21:47;;;;;;;3.20;1.37;;;24.80;99.90;;;;;;5080193;28;20549;-86
2022/10/09 12:24:17;;;;;;;4.33;1.33;;;25.20;99.90;;;;;;5079525;28;20447;-84
2022/10/09 12:26:45;;;;;;;4.67;1.27;;;25.20;99.90;;;;;;5076674;28;20467;-84
2022/10/09 12:29:21;;;;;;;3.50;1.10;;;25.40;99.90;;;;;;5074197;28;20448;-83
2022/10/09 12:31:52;;;;;;;4.23;1.30;;;25.30;99.90;;;;;;5075586;28;20534;-83
2022/10/09 12:34:24;;;;;;;3.70;1.50;;;25.50;99.90;;;;;;5073593;28;20459;-84
2022/10/09 12:36:51;;;;;;;6.50;1.10;;;25.10;98.90;;;;;;5070728;28;20483;-83
2022/10/09 12:39:24;;;;;;;4.40;1.20;;;25.40;99.90;;;;;;5071447;28;20470;-83
2022/10/09 12:41:55;;;;;;;3.27;1.13;;;25.30;99.90;;;;;;5068085;28;20490;-83
2022/10/09 12:44:30;;;;;;;2.90;1.10;;;25.30;99.90;;;;;;5072042;28;20990;-80
2022/10/09 12:47:03;;;;;;;6.10;1.47;;;25.20;98.90;;;;;;5075612;28;20454;-81
2022/10/09 12:49:30;;;;;;;3.73;1.20;;;25.20;99.90;;;;;;5069620;28;20459;-83
2022/10/09 12:51:59;;;;;;;2.43;1.00;;;25.50;99.90;;;;;;5074421;28;20922;-81
2022/10/09 12:54:29;;;;;;;5.10;1.30;;;25.20;97.10;;;;;;5074259;28;20443;-84
2022/10/09 12:56:57;;;;;;;4.60;1.50;;;25.60;99.90;;;;;;5072830;28;20527;-84
2022/10/09 12:59:27;;;;;;;3.80;1.10;;;25.60;99.90;;;;;;5071430;28;20534;-83
2022/10/09 13:01:58;;;;;;;3.10;1.23;;;25.60;99.90;;;;;;5073423;28;20510;-82
2022/10/09 13:04:29;;;;;;;2.50;1.03;;;25.70;97.60;;;;;;5072340;28;20446;-83
2022/10/09 13:06:58;;;;;;;3.63;1.20;;;25.40;96.10;;;;;;5071301;28;20838;-84